Panarama Park, Iowa
Current Conditions -  °F | °C
As of 6:21 PM on Sunday 23 Nov 2014 (Local Time) from KDVN Reporting Station
Light Rain Light Rain  
Wind Chill: 50°   Ceiling: 400
Heat Index: 50°   Visibility: 1.7mi
Dew Point: 48°   Wind: 6mph
Humidity: 93%   Direction: 120°ESE
Pressure: 29.28"   Gusts: NA
Location:  41.5718°N, 90.4678°W
Report Text: KDVN 240021Z AUTO 12005KT 1 3/4SM -RA BR OVC004 10/09 A2928 RMK AO2 P0000 T01000089
Loading
Personal Weather Stations






























Interactive Weather Map New forecast layout! Learn more

10-Day Weather Forecast

Advertisements
Track Severe Weather on mobile